Time;durP1;ratioP1;P1;durP2;ratioP2;P2;SDS_P1;SDS_P2;PMS_P1;PMS_P2;Temp;Humidity;BMP_temperature;BMP_pressure;BME280_temperature;BME280_humidity;BME280_pressure;Samples;Min_cycle;Max_cycle;Signal;HPM_P1;HPM_P2
2021/12/31 00:01:06;;;;;;;21.48;4.13;;;11.60;91.60;;;;;;5112751;27;20490;-66
2021/12/31 00:03:31;;;;;;;16.38;4.28;;;11.60;91.60;;;;;;5130766;27;20104;-66
2021/12/31 00:05:57;;;;;;;18.00;4.70;;;11.70;91.60;;;;;;5131018;27;20493;-66
2021/12/31 00:08:23;;;;;;;20.60;4.00;;;11.80;91.50;;;;;;5112772;27;20093;-66
2021/12/31 00:10:48;;;;;;;32.03;6.65;;;11.70;91.10;;;;;;5074740;28;20808;-66
2021/12/31 00:13:14;;;;;;;21.27;4.10;;;11.70;91.10;;;;;;5109051;28;20035;-66
2021/12/31 00:15:39;;;;;;;24.95;4.78;;;11.70;91.00;;;;;;5121857;27;20513;-66
2021/12/31 00:18:05;;;;;;;18.80;4.32;;;11.70;91.10;;;;;;5130808;27;20231;-66
2021/12/31 00:20:32;;;;;;;23.15;5.05;;;11.80;91.00;;;;;;5117089;27;20122;-66
2021/12/31 00:23:06;;;;;;;25.45;5.15;;;11.80;90.80;;;;;;5095005;27;20047;-66
2021/12/31 00:25:34;;;;;;;20.73;5.07;;;11.80;90.80;;;;;;5083456;28;20051;-66
2021/12/31 00:28:00;;;;;;;19.25;4.65;;;11.80;90.90;;;;;;5111234;27;20043;-66
2021/12/31 00:30:26;;;;;;;26.33;5.38;;;11.90;90.80;;;;;;5130774;27;20512;-66
2021/12/31 00:32:52;;;;;;;18.92;4.25;;;11.80;90.70;;;;;;5130600;27;20043;-66
2021/12/31 00:35:18;;;;;;;21.55;4.90;;;11.80;91.00;;;;;;5130039;27;20404;-66
2021/12/31 00:37:44;;;;;;;27.17;4.40;;;11.80;91.00;;;;;;5130053;27;20047;-66
2021/12/31 00:40:12;;;;;;;24.02;5.10;;;11.80;90.70;;;;;;5111587;27;20043;-66
2021/12/31 00:42:38;;;;;;;29.20;5.20;;;11.80;90.60;;;;;;5130569;27;20085;-66
2021/12/31 00:45:06;;;;;;;25.50;5.30;;;11.80;90.60;;;;;;5130436;27;20451;-66
2021/12/31 00:47:32;;;;;;;22.42;4.78;;;11.80;90.70;;;;;;5129480;27;20118;-66
2021/12/31 00:49:57;;;;;;;26.60;4.80;;;11.80;90.90;;;;;;5130589;27;20179;-66
2021/12/31 00:52:23;;;;;;;27.10;6.07;;;11.70;90.70;;;;;;5129985;27;20551;-66
2021/12/31 00:54:49;;;;;;;18.65;4.50;;;11.80;90.60;;;;;;5130577;27;20035;-67
2021/12/31 00:57:15;;;;;;;25.02;4.95;;;11.80;90.60;;;;;;5129094;27;20047;-66
2021/12/31 00:59:41;;;;;;;17.50;4.38;;;11.90;90.60;;;;;;5112228;27;20137;-66
2021/12/31 01:02:07;;;;;;;22.13;5.57;;;11.80;90.40;;;;;;5129662;27;20055;-66
2021/12/31 01:04:33;;;;;;;21.92;4.95;;;11.80;90.60;;;;;;5130272;28;20047;-66
2021/12/31 01:07:01;;;;;;;21.30;6.35;;;11.80;90.50;;;;;;5116843;28;20056;-66
2021/12/31 01:09:28;;;;;;;25.90;4.63;;;11.80;90.50;;;;;;5129768;28;20043;-66
2021/12/31 01:11:55;;;;;;;26.75;5.70;;;11.80;90.50;;;;;;5122643;28;20130;-66
2021/12/31 01:14:29;;;;;;;18.63;5.03;;;11.80;90.50;;;;;;5127298;28;20054;-65
2021/12/31 01:16:59;;;;;;;25.95;5.10;;;11.80;90.50;;;;;;5130201;28;20054;-66
2021/12/31 01:21:52;;;;;;;33.30;6.97;;;11.80;90.50;;;;;;5129857;28;20070;-67
2021/12/31 01:24:19;;;;;;;25.10;4.78;;;11.80;90.50;;;;;;5129158;28;20518;-67
2021/12/31 01:26:45;;;;;;;24.10;5.70;;;11.80;90.50;;;;;;5129675;28;20487;-66
2021/12/31 01:29:11;;;;;;;20.85;5.05;;;11.80;90.60;;;;;;5129384;28;20039;-66
2021/12/31 01:31:36;;;;;;;17.52;3.88;;;11.80;90.50;;;;;;5130169;28;20058;-67
2021/12/31 01:34:02;;;;;;;16.55;4.28;;;11.90;90.50;;;;;;5129160;28;20047;-66
2021/12/31 01:36:28;;;;;;;19.58;4.90;;;11.80;90.60;;;;;;5129813;28;20046;-66
2021/12/31 01:38:54;;;;;;;28.90;4.55;;;11.90;90.60;;;;;;5129699;28;20070;-66
2021/12/31 01:41:21;;;;;;;21.08;5.13;;;11.90;90.60;;;;;;5111229;28;20043;-66
2021/12/31 01:43:47;;;;;;;19.17;5.10;;;11.80;90.40;;;;;;5128537;28;20037;-66
2021/12/31 01:46:13;;;;;;;25.20;5.47;;;11.80;90.40;;;;;;5094786;28;20043;-66
2021/12/31 01:51:25;;;;;;;21.60;5.15;;;11.70;90.30;;;;;;5129308;27;20074;-66
2021/12/31 01:53:50;;;;;;;22.92;4.20;;;11.70;90.40;;;;;;5132470;27;20043;-66
2021/12/31 01:56:18;;;;;;;28.77;5.35;;;11.70;90.40;;;;;;5133123;27;20259;-66
2021/12/31 01:58:47;;;;;;;21.95;6.00;;;11.60;90.40;;;;;;5132999;27;20040;-66
2021/12/31 02:01:13;;;;;;;21.95;3.88;;;11.60;90.40;;;;;;5133636;27;20055;-66
2021/12/31 02:03:39;;;;;;;17.00;3.92;;;11.60;90.50;;;;;;5132674;27;20039;-66
2021/12/31 02:06:05;;;;;;;14.68;4.28;;;11.70;90.50;;;;;;5133511;27;20134;-66
2021/12/31 02:08:31;;;;;;;21.35;5.22;;;11.70;90.60;;;;;;5132744;27;20047;-66
2021/12/31 02:10:57;;;;;;;16.75;4.00;;;11.80;90.70;;;;;;5133247;27;20050;-66
2021/12/31 02:13:24;;;;;;;23.45;3.50;;;11.70;90.60;;;;;;5132725;27;20503;-66
2021/12/31 02:15:51;;;;;;;16.85;4.07;;;11.70;90.60;;;;;;5097591;27;20062;-66
2021/12/31 02:18:17;;;;;;;15.30;3.67;;;11.70;90.70;;;;;;5133004;27;20083;-66
2021/12/31 02:20:46;;;;;;;13.68;3.70;;;11.70;90.80;;;;;;5114596;27;20070;-66
2021/12/31 02:23:24;;;;;;;18.73;4.60;;;11.80;90.60;;;;;;5132871;27;20039;-66
2021/12/31 02:25:51;;;;;;;17.80;4.53;;;11.80;90.80;;;;;;5132850;27;20039;-67
2021/12/31 02:28:18;;;;;;;15.35;3.78;;;11.80;90.60;;;;;;5132932;27;20105;-66
2021/12/31 02:30:44;;;;;;;23.02;5.20;;;11.90;90.50;;;;;;5132413;27;20047;-66
2021/12/31 02:33:10;;;;;;;16.23;4.25;;;11.90;90.60;;;;;;5133307;27;20035;-66
2021/12/31 02:35:37;;;;;;;17.98;4.57;;;11.80;90.80;;;;;;5114127;27;20407;-66
2021/12/31 02:38:04;;;;;;;22.02;4.97;;;11.80;90.80;;;;;;5132955;27;20496;-66
2021/12/31 02:40:31;;;;;;;16.88;4.25;;;11.90;90.90;;;;;;5132094;27;20400;-66
2021/12/31 02:42:58;;;;;;;22.30;5.88;;;12.00;90.70;;;;;;5132188;27;20418;-66
2021/12/31 02:45:34;;;;;;;20.75;4.55;;;12.00;90.40;;;;;;5132251;27;20100;-66
2021/12/31 02:48:02;;;;;;;18.50;4.82;;;11.90;90.50;;;;;;5132526;27;20035;-66
2021/12/31 02:50:35;;;;;;;14.15;3.55;;;12.00;90.40;;;;;;5132188;27;20039;-67
2021/12/31 02:53:04;;;;;;;16.33;4.65;;;11.90;90.50;;;;;;5132470;27;20517;-66
2021/12/31 02:55:31;;;;;;;16.80;4.38;;;11.90;90.50;;;;;;5131757;27;20051;-67
2021/12/31 02:57:58;;;;;;;15.70;3.78;;;11.90;90.50;;;;;;5132462;27;20035;-66
2021/12/31 03:00:25;;;;;;;16.35;3.83;;;12.00;90.50;;;;;;5131766;27;20527;-66
2021/12/31 03:02:52;;;;;;;15.43;4.22;;;12.00;90.40;;;;;;5132537;27;20103;-66
2021/12/31 03:05:18;;;;;;;11.05;3.63;;;12.00;90.50;;;;;;5131300;27;20047;-66
2021/12/31 03:07:46;;;;;;;13.40;3.45;;;11.90;90.40;;;;;;5114091;27;20047;-66
2021/12/31 03:10:13;;;;;;;22.13;5.20;;;11.90;90.50;;;;;;5131643;27;20040;-66
2021/12/31 03:12:40;;;;;;;22.38;3.83;;;11.90;90.40;;;;;;5132376;27;20487;-66
2021/12/31 03:15:07;;;;;;;18.30;5.20;;;11.90;90.60;;;;;;5131879;27;20044;-67
2021/12/31 03:17:32;;;;;;;21.13;6.40;;;11.90;90.60;;;;;;5132074;27;20039;-66
2021/12/31 03:20:09;;;;;;;19.00;4.75;;;11.90;90.60;;;;;;5131374;27;20038;-66
2021/12/31 03:22:36;;;;;;;12.00;4.47;;;12.00;90.50;;;;;;5132086;27;20046;-66
2021/12/31 03:25:01;;;;;;;13.85;3.53;;;12.00;90.30;;;;;;5131548;27;20043;-67
2021/12/31 03:27:27;;;;;;;20.60;4.97;;;11.90;90.20;;;;;;5131816;27;20050;-66
2021/12/31 03:29:53;;;;;;;13.80;4.15;;;12.00;90.20;;;;;;5131446;27;20049;-67
2021/12/31 03:32:18;;;;;;;20.90;4.15;;;12.00;90.10;;;;;;5113231;27;20139;-66
2021/12/31 03:34:44;;;;;;;23.58;4.68;;;11.90;90.20;;;;;;5096204;27;20043;-66
2021/12/31 03:37:09;;;;;;;19.70;4.10;;;12.00;90.20;;;;;;5131492;27;20035;-66
2021/12/31 03:39:35;;;;;;;14.40;3.50;;;12.00;90.40;;;;;;5131368;27;20381;-66
2021/12/31 03:42:00;;;;;;;23.40;4.00;;;12.10;90.40;;;;;;5130493;27;20050;-66
2021/12/31 03:44:26;;;;;;;11.65;3.58;;;12.10;90.20;;;;;;5131413;27;20055;-66
2021/12/31 03:46:52;;;;;;;9.70;2.80;;;12.10;90.30;;;;;;5113388;27;20054;-66
2021/12/31 03:49:17;;;;;;;19.90;4.00;;;12.30;90.30;;;;;;5131112;27;20035;-66
2021/12/31 03:51:43;;;;;;;17.60;4.95;;;12.30;90.10;;;;;;5130475;27;20100;-66
2021/12/31 03:54:08;;;;;;;16.45;3.58;;;12.30;90.00;;;;;;5131371;27;20046;-67
2021/12/31 03:56:34;;;;;;;16.15;4.10;;;12.30;89.90;;;;;;5131020;27;20448;-66
2021/12/31 03:59:00;;;;;;;16.92;3.63;;;12.20;90.00;;;;;;5131286;27;20042;-66
2021/12/31 04:01:27;;;;;;;16.17;3.90;;;12.30;89.90;;;;;;5112500;27;20047;-66
2021/12/31 04:03:53;;;;;;;15.35;3.92;;;12.30;89.80;;;;;;5111943;27;20053;-66
2021/12/31 04:06:21;;;;;;;7.88;2.72;;;12.30;89.80;;;;;;5129719;27;20082;-66
2021/12/31 04:08:47;;;;;;;16.33;4.00;;;12.20;89.70;;;;;;5131304;27;20043;-66
2021/12/31 04:11:13;;;;;;;15.98;3.72;;;12.30;89.90;;;;;;5130670;27;20043;-66
2021/12/31 04:13:39;;;;;;;14.32;3.53;;;12.40;89.90;;;;;;5095962;27;20050;-66
2021/12/31 04:16:05;;;;;;;11.38;3.88;;;12.50;89.50;;;;;;5130062;27;20039;-66
2021/12/31 04:18:31;;;;;;;12.43;3.83;;;12.60;89.40;;;;;;5130688;27;20419;-67
2021/12/31 04:20:57;;;;;;;17.63;3.20;;;12.70;89.30;;;;;;5129984;27;20043;-66
2021/12/31 04:23:33;;;;;;;13.73;3.42;;;12.60;89.20;;;;;;5130479;27;20046;-66
2021/12/31 04:25:59;;;;;;;13.25;3.03;;;12.60;88.90;;;;;;5110530;27;20043;-66
2021/12/31 04:28:27;;;;;;;13.18;3.88;;;12.40;89.10;;;;;;5111945;27;20046;-66
2021/12/31 04:30:53;;;;;;;13.70;4.47;;;12.30;89.00;;;;;;5129917;27;20039;-66
2021/12/31 04:33:19;;;;;;;15.50;3.42;;;12.20;89.00;;;;;;5129983;27;20105;-67
2021/12/31 04:35:44;;;;;;;13.88;4.35;;;12.30;89.40;;;;;;5130252;27;20126;-66
2021/12/31 04:38:10;;;;;;;14.10;3.38;;;12.20;89.30;;;;;;5130261;27;20405;-67
2021/12/31 04:40:37;;;;;;;15.40;4.47;;;12.20;89.50;;;;;;5130093;27;20092;-66
2021/12/31 04:43:03;;;;;;;13.80;3.22;;;12.20;89.50;;;;;;5129857;27;20039;-66
2021/12/31 04:45:29;;;;;;;14.30;3.95;;;12.20;89.50;;;;;;5129781;27;20449;-65
2021/12/31 04:47:54;;;;;;;12.32;4.50;;;12.20;89.60;;;;;;5108703;27;20043;-65
2021/12/31 04:50:20;;;;;;;11.10;3.42;;;12.20;89.60;;;;;;5130431;27;20043;-65
2021/12/31 04:52:46;;;;;;;12.73;4.15;;;12.10;89.50;;;;;;5130447;27;20120;-65
2021/12/31 04:55:12;;;;;;;11.32;3.50;;;12.10;89.50;;;;;;5130276;27;20050;-65
2021/12/31 04:57:38;;;;;;;11.95;3.45;;;12.20;89.70;;;;;;5130285;27;20050;-66
2021/12/31 05:00:06;;;;;;;12.60;3.22;;;12.10;89.30;;;;;;5129925;27;20039;-65
2021/12/31 05:02:32;;;;;;;9.68;3.13;;;12.10;89.30;;;;;;5096965;28;20059;-65
2021/12/31 05:04:57;;;;;;;12.20;3.25;;;12.10;89.50;;;;;;5117444;28;20055;-65
2021/12/31 05:07:23;;;;;;;9.93;3.58;;;12.10;89.50;;;;;;5114037;28;20075;-65
2021/12/31 05:09:49;;;;;;;11.07;4.85;;;12.10;89.60;;;;;;5126268;28;20046;-66
2021/12/31 05:12:20;;;;;;;10.60;3.30;;;12.10;89.50;;;;;;5111537;28;20047;-65
2021/12/31 05:14:47;;;;;;;12.75;3.53;;;12.10;89.50;;;;;;5114850;28;20120;-65
2021/12/31 05:17:12;;;;;;;7.72;2.50;;;12.20;89.40;;;;;;5120053;28;20082;-65
2021/12/31 05:19:43;;;;;;;12.75;5.40;;;12.20;89.30;;;;;;5120624;28;20097;-65
2021/12/31 05:22:09;;;;;;;10.18;2.70;;;12.20;89.30;;;;;;5123870;28;20057;-66
2021/12/31 05:24:35;;;;;;;11.80;3.38;;;12.20;89.30;;;;;;5129764;28;20108;-65
2021/12/31 05:27:00;;;;;;;7.13;2.88;;;12.30;89.10;;;;;;5131078;27;20122;-66
2021/12/31 05:29:26;;;;;;;9.38;2.70;;;12.30;89.00;;;;;;5134139;27;20035;-65
2021/12/31 05:31:52;;;;;;;8.65;2.78;;;12.30;88.60;;;;;;5134211;27;20667;-66
2021/12/31 05:34:17;;;;;;;5.68;2.33;;;12.40;88.60;;;;;;5108574;28;20044;-66
2021/12/31 05:36:43;;;;;;;7.93;2.58;;;12.60;88.40;;;;;;5113519;28;20396;-66
2021/12/31 05:39:10;;;;;;;13.15;2.83;;;12.60;88.10;;;;;;5078357;28;20184;-65
2021/12/31 05:41:36;;;;;;;7.40;2.35;;;12.60;88.00;;;;;;5116879;27;20047;-66
2021/12/31 05:44:02;;;;;;;10.35;3.03;;;12.50;88.00;;;;;;5094824;28;20411;-66
2021/12/31 05:46:28;;;;;;;6.95;2.63;;;12.50;88.00;;;;;;5127024;27;20051;-66
2021/12/31 05:48:53;;;;;;;11.30;4.72;;;12.50;87.70;;;;;;5133614;27;20195;-66
2021/12/31 05:51:19;;;;;;;4.57;2.13;;;12.40;88.00;;;;;;5133564;27;20043;-66
2021/12/31 05:53:44;;;;;;;15.30;2.55;;;12.50;87.90;;;;;;5120223;27;20043;-66
2021/12/31 05:56:10;;;;;;;7.55;2.40;;;12.50;87.80;;;;;;5113073;28;20040;-67
2021/12/31 05:58:35;;;;;;;27.02;4.18;;;12.50;87.70;;;;;;5113273;28;20097;-66
2021/12/31 06:01:01;;;;;;;9.13;2.78;;;12.50;87.80;;;;;;5094978;28;20047;-66
2021/12/31 06:03:27;;;;;;;10.38;2.88;;;12.50;87.60;;;;;;5105003;27;20043;-67
2021/12/31 06:05:53;;;;;;;6.35;2.28;;;12.60;87.60;;;;;;5118199;27;20529;-67
2021/12/31 06:08:19;;;;;;;9.52;3.03;;;12.60;87.60;;;;;;5094639;28;20047;-66
2021/12/31 06:10:44;;;;;;;7.00;2.30;;;12.60;87.40;;;;;;5113102;27;20036;-66
2021/12/31 06:13:11;;;;;;;10.52;3.40;;;12.60;87.20;;;;;;5112949;27;20027;-66
2021/12/31 06:15:41;;;;;;;9.13;3.35;;;12.60;87.40;;;;;;5115516;27;20043;-66
2021/12/31 06:18:06;;;;;;;8.00;2.13;;;12.50;87.50;;;;;;5131828;27;20491;-67
2021/12/31 06:20:33;;;;;;;13.43;3.85;;;12.60;87.40;;;;;;5132211;27;20065;-67
2021/12/31 06:22:59;;;;;;;9.18;2.90;;;12.60;87.30;;;;;;5131696;27;20035;-67
2021/12/31 06:25:25;;;;;;;10.00;2.15;;;12.40;87.40;;;;;;5131475;27;20134;-66
2021/12/31 06:27:51;;;;;;;7.80;2.42;;;12.30;87.30;;;;;;5127525;27;20176;-66
2021/12/31 06:30:17;;;;;;;8.10;2.38;;;12.40;87.50;;;;;;5112708;27;20051;-66
2021/12/31 06:32:42;;;;;;;9.57;2.38;;;12.30;87.30;;;;;;5112013;27;20051;-66
2021/12/31 06:35:08;;;;;;;10.95;4.43;;;12.20;87.30;;;;;;5112572;27;20043;-66
2021/12/31 06:37:34;;;;;;;5.80;2.17;;;12.20;87.50;;;;;;5112421;28;20067;-67
2021/12/31 06:40:05;;;;;;;10.27;2.60;;;12.20;87.40;;;;;;5093012;27;20549;-66
2021/12/31 06:42:31;;;;;;;6.23;2.20;;;12.10;87.30;;;;;;5114606;27;20040;-67
2021/12/31 06:44:57;;;;;;;5.20;2.22;;;12.10;87.60;;;;;;5094248;27;20046;-67
2021/12/31 06:47:22;;;;;;;5.43;2.05;;;12.10;87.50;;;;;;5120888;27;20042;-66
2021/12/31 06:49:48;;;;;;;4.53;2.00;;;12.10;87.30;;;;;;5113916;27;20498;-67
2021/12/31 06:52:13;;;;;;;6.97;2.22;;;12.10;87.30;;;;;;5121473;27;20047;-66
2021/12/31 06:54:39;;;;;;;9.45;2.35;;;12.10;87.60;;;;;;5127414;27;20035;-66
2021/12/31 06:57:05;;;;;;;7.47;2.45;;;12.10;87.60;;;;;;5127928;27;20052;-66
2021/12/31 06:59:30;;;;;;;6.30;2.58;;;12.10;87.70;;;;;;5111283;27;20407;-66
2021/12/31 07:01:57;;;;;;;6.72;2.53;;;12.10;87.70;;;;;;5110889;28;20508;-66
2021/12/31 07:04:23;;;;;;;7.50;3.13;;;12.10;87.70;;;;;;5130841;27;20042;-66
2021/12/31 07:06:49;;;;;;;6.13;1.92;;;12.00;87.80;;;;;;5131225;27;20483;-67
2021/12/31 07:09:14;;;;;;;11.75;3.65;;;12.10;87.60;;;;;;5128440;27;20046;-66
2021/12/31 07:11:40;;;;;;;8.88;2.65;;;12.10;87.60;;;;;;5111396;27;20035;-66
2021/12/31 07:14:06;;;;;;;9.38;3.15;;;12.10;87.80;;;;;;5111140;28;20097;-67
2021/12/31 07:16:31;;;;;;;13.57;2.88;;;12.00;87.60;;;;;;5093953;27;20122;-67
2021/12/31 07:18:57;;;;;;;13.43;4.28;;;12.00;88.10;;;;;;5125329;27;20044;-66
2021/12/31 07:21:23;;;;;;;7.75;2.65;;;12.00;87.90;;;;;;5111766;27;20081;-66
2021/12/31 07:23:48;;;;;;;10.88;2.53;;;11.90;88.00;;;;;;5111507;27;20407;-66
2021/12/31 07:26:14;;;;;;;9.85;3.33;;;11.90;88.10;;;;;;5102909;27;20483;-66
2021/12/31 07:28:39;;;;;;;10.98;3.17;;;11.90;88.40;;;;;;5130049;27;20095;-66
2021/12/31 07:31:06;;;;;;;12.50;3.60;;;12.00;88.20;;;;;;5130543;27;20045;-66
2021/12/31 07:33:32;;;;;;;10.40;2.70;;;12.00;88.20;;;;;;5130194;27;20055;-65
2021/12/31 07:36:00;;;;;;;10.23;2.88;;;11.90;88.30;;;;;;5126851;27;20040;-66
2021/12/31 07:38:34;;;;;;;11.02;2.63;;;11.90;88.20;;;;;;5110731;27;20155;-66
2021/12/31 07:41:00;;;;;;;6.50;2.42;;;11.90;88.40;;;;;;5113497;27;20415;-66
2021/12/31 07:43:27;;;;;;;9.73;2.47;;;11.90;88.50;;;;;;5110986;27;20089;-66
2021/12/31 07:45:53;;;;;;;5.82;2.15;;;11.80;88.60;;;;;;5116681;27;20035;-66
2021/12/31 07:48:19;;;;;;;6.68;3.13;;;11.90;88.50;;;;;;5110741;28;20039;-66
2021/12/31 07:50:46;;;;;;;5.25;1.92;;;11.90;88.50;;;;;;5109617;27;20043;-66
2021/12/31 07:53:11;;;;;;;6.68;2.72;;;11.90;88.50;;;;;;5110764;28;20131;-66
2021/12/31 07:55:37;;;;;;;10.75;2.47;;;11.80;88.40;;;;;;5123094;27;20122;-67
2021/12/31 07:58:05;;;;;;;5.97;2.35;;;11.80;88.50;;;;;;5123575;27;20515;-66
2021/12/31 08:00:31;;;;;;;6.82;2.45;;;11.80;88.60;;;;;;5124993;27;21260;-65
2021/12/31 08:02:57;;;;;;;12.20;2.70;;;11.80;88.50;;;;;;5130607;27;20122;-65
2021/12/31 08:05:24;;;;;;;9.90;2.83;;;11.90;88.60;;;;;;5130594;27;20606;-65
2021/12/31 08:07:50;;;;;;;6.80;2.65;;;11.90;88.50;;;;;;5129778;27;20035;-65
2021/12/31 08:10:16;;;;;;;10.05;2.55;;;11.90;88.50;;;;;;5112309;27;20411;-66
2021/12/31 08:12:42;;;;;;;15.82;3.13;;;12.00;88.40;;;;;;5119937;27;20039;-66
2021/12/31 08:15:08;;;;;;;5.80;2.40;;;12.10;88.30;;;;;;5130880;27;20038;-66
2021/12/31 08:17:34;;;;;;;5.93;2.55;;;12.10;88.30;;;;;;5130252;27;20096;-66
2021/12/31 08:19:59;;;;;;;9.70;2.60;;;12.10;88.10;;;;;;5130281;27;20047;-66
2021/12/31 08:22:25;;;;;;;8.73;2.78;;;12.20;88.20;;;;;;5130200;27;20042;-66
2021/12/31 08:24:51;;;;;;;6.30;2.63;;;12.20;88.10;;;;;;5125983;27;20051;-67
2021/12/31 08:27:17;;;;;;;9.55;2.40;;;12.10;88.10;;;;;;5111399;27;20034;-67
2021/12/31 08:29:42;;;;;;;10.90;2.20;;;12.10;88.30;;;;;;5130319;27;20039;-67
2021/12/31 08:32:08;;;;;;;12.57;2.55;;;12.10;88.10;;;;;;5118228;27;20444;-68
2021/12/31 08:34:34;;;;;;;10.75;2.72;;;12.10;88.00;;;;;;5129307;27;20035;-68
2021/12/31 08:36:59;;;;;;;9.85;2.47;;;12.00;88.20;;;;;;5130187;27;20053;-67
2021/12/31 08:39:25;;;;;;;5.53;2.17;;;12.10;88.30;;;;;;5121189;27;20038;-67
2021/12/31 08:41:51;;;;;;;7.07;2.33;;;12.10;88.10;;;;;;5111949;27;20123;-67
2021/12/31 08:44:17;;;;;;;10.05;2.40;;;12.10;88.10;;;;;;5129621;27;20387;-67
2021/12/31 08:46:44;;;;;;;7.63;2.45;;;12.10;88.10;;;;;;5123773;27;20035;-67
2021/12/31 08:49:09;;;;;;;14.20;3.88;;;12.00;88.20;;;;;;5127213;27;20039;-67
2021/12/31 08:51:36;;;;;;;10.68;2.60;;;12.10;88.20;;;;;;5130238;27;20547;-68
2021/12/31 08:54:01;;;;;;;7.55;2.33;;;12.10;88.30;;;;;;5111191;27;20054;-68
2021/12/31 08:56:27;;;;;;;7.53;2.53;;;12.10;88.40;;;;;;5110588;28;20035;-68
2021/12/31 08:58:53;;;;;;;7.88;3.58;;;12.10;88.40;;;;;;5130324;27;20047;-68
2021/12/31 09:01:19;;;;;;;10.18;2.72;;;12.10;88.60;;;;;;5100107;28;20573;-67
2021/12/31 09:03:44;;;;;;;9.68;2.65;;;12.10;88.40;;;;;;5125008;27;20597;-68
2021/12/31 09:06:11;;;;;;;14.73;3.03;;;12.10;88.70;;;;;;5125945;27;20079;-66
2021/12/31 09:08:37;;;;;;;11.57;2.90;;;12.00;89.00;;;;;;5109611;28;20047;-66
2021/12/31 09:11:04;;;;;;;6.72;2.22;;;12.00;89.20;;;;;;5118707;28;20481;-67
2021/12/31 09:13:31;;;;;;;8.73;2.45;;;12.10;89.10;;;;;;5100875;28;20559;-66
2021/12/31 09:15:57;;;;;;;12.50;3.17;;;12.10;89.10;;;;;;5108459;28;20258;-66
2021/12/31 09:18:23;;;;;;;12.98;2.92;;;12.00;88.90;;;;;;5113943;28;20721;-66
2021/12/31 09:20:49;;;;;;;19.63;3.90;;;12.00;88.80;;;;;;5122139;28;20041;-66
2021/12/31 09:23:15;;;;;;;12.65;2.90;;;12.10;88.70;;;;;;5127783;28;20059;-66
2021/12/31 09:25:41;;;;;;;11.25;3.55;;;12.00;88.60;;;;;;5109807;28;20055;-65
2021/12/31 09:28:07;;;;;;;7.18;2.60;;;12.00;88.70;;;;;;5110253;28;20035;-66
2021/12/31 09:30:32;;;;;;;7.47;2.47;;;12.00;88.80;;;;;;5128412;28;20126;-67
2021/12/31 09:32:58;;;;;;;6.68;2.58;;;12.10;88.50;;;;;;5126538;28;20122;-66
2021/12/31 09:35:23;;;;;;;10.30;2.70;;;12.00;88.70;;;;;;5114230;28;20182;-66
2021/12/31 09:37:49;;;;;;;8.70;3.50;;;12.00;88.90;;;;;;5118461;28;20068;-65
2021/12/31 09:40:18;;;;;;;9.60;3.00;;;12.00;89.20;;;;;;5128456;28;20043;-66
2021/12/31 09:42:59;;;;;;;8.50;2.88;;;11.90;89.30;;;;;;5119434;28;20495;-66
2021/12/31 09:45:27;;;;;;;9.52;3.08;;;12.00;89.50;;;;;;5111689;28;20039;-66
2021/12/31 09:47:52;;;;;;;14.07;4.68;;;11.80;90.00;;;;;;5097055;28;20506;-66
2021/12/31 09:50:21;;;;;;;13.48;4.53;;;11.70;90.30;;;;;;5091838;28;20131;-66
2021/12/31 09:52:47;;;;;;;10.60;3.72;;;11.70;90.20;;;;;;5125750;28;20059;-66
2021/12/31 09:55:12;;;;;;;15.95;4.28;;;11.70;90.30;;;;;;5121745;28;20188;-66
2021/12/31 09:57:38;;;;;;;12.07;3.22;;;11.70;90.30;;;;;;5121995;28;20041;-66
2021/12/31 10:00:05;;;;;;;7.05;2.72;;;11.60;90.60;;;;;;5127140;28;20047;-66
2021/12/31 10:02:33;;;;;;;14.35;2.72;;;11.60;90.60;;;;;;5107739;28;20058;-65
2021/12/31 10:05:00;;;;;;;8.75;3.40;;;11.70;90.60;;;;;;5117537;28;20054;-65
2021/12/31 10:07:29;;;;;;;12.68;3.42;;;11.70;90.40;;;;;;5128961;28;20039;-66
2021/12/31 10:10:14;;;;;;;13.23;4.13;;;11.60;90.60;;;;;;5128364;28;20053;-65
2021/12/31 10:12:48;;;;;;;12.77;3.03;;;11.60;91.00;;;;;;5073634;28;20047;-65
2021/12/31 10:15:17;;;;;;;11.68;2.95;;;11.60;91.00;;;;;;5119977;27;20038;-66
2021/12/31 10:17:43;;;;;;;12.07;3.17;;;11.60;91.30;;;;;;5125589;27;20043;-66
2021/12/31 10:20:09;;;;;;;13.18;3.50;;;11.60;91.30;;;;;;5129729;27;20106;-66
2021/12/31 10:22:35;;;;;;;12.73;3.42;;;11.60;91.30;;;;;;5127564;27;20122;-66
2021/12/31 10:25:02;;;;;;;10.02;3.20;;;11.60;91.40;;;;;;5110194;27;20069;-67
2021/12/31 10:27:28;;;;;;;12.75;3.90;;;11.60;91.50;;;;;;5129202;27;20039;-66
2021/12/31 10:29:57;;;;;;;12.13;3.63;;;11.60;91.40;;;;;;5113996;27;20130;-66
2021/12/31 10:32:26;;;;;;;14.25;4.68;;;11.60;91.60;;;;;;5131564;27;20046;-66
2021/12/31 10:34:52;;;;;;;8.13;3.58;;;11.60;91.70;;;;;;5119476;27;20051;-66
2021/12/31 10:37:23;;;;;;;14.13;3.47;;;11.60;91.60;;;;;;5105673;28;20039;-66
2021/12/31 10:40:00;;;;;;;7.15;4.30;;;11.60;91.30;;;;;;5112306;28;20491;-65
2021/12/31 10:42:34;;;;;;;15.60;4.00;;;11.60;91.20;;;;;;5122965;27;20155;-66
2021/12/31 10:45:03;;;;;;;11.70;3.80;;;11.60;91.10;;;;;;5111854;28;20495;-65
2021/12/31 10:47:39;;;;;;;7.78;3.25;;;11.60;91.20;;;;;;5123238;27;20573;-65
2021/12/31 10:50:04;;;;;;;12.30;4.78;;;11.50;91.30;;;;;;5129454;27;20043;-65
2021/12/31 10:52:37;;;;;;;12.52;4.00;;;11.50;91.50;;;;;;5123579;27;20039;-64
2021/12/31 10:55:26;;;;;;;11.13;3.05;;;11.50;91.50;;;;;;5117784;27;20046;-64
2021/12/31 10:58:03;;;;;;;9.00;3.58;;;11.50;91.50;;;;;;5112542;27;20402;-65
2021/12/31 11:00:37;;;;;;;10.52;3.85;;;11.40;91.90;;;;;;5131471;27;20066;-66
2021/12/31 11:03:04;;;;;;;13.48;3.80;;;11.50;92.10;;;;;;5112281;27;20086;-66
2021/12/31 11:05:30;;;;;;;14.55;4.28;;;11.40;92.20;;;;;;5111917;28;20044;-65
2021/12/31 11:07:59;;;;;;;15.50;3.88;;;11.40;92.20;;;;;;5111000;28;20039;-66
2021/12/31 11:10:27;;;;;;;11.57;4.13;;;11.40;92.20;;;;;;5132178;27;20095;-66
2021/12/31 11:12:54;;;;;;;9.63;3.25;;;11.30;92.40;;;;;;5121627;27;20036;-66
2021/12/31 11:15:20;;;;;;;10.93;3.22;;;11.30;92.50;;;;;;5116220;27;20118;-66
2021/12/31 11:17:46;;;;;;;13.75;3.72;;;11.30;92.60;;;;;;5117765;27;20050;-66
2021/12/31 11:20:18;;;;;;;10.75;3.63;;;11.20;92.50;;;;;;5131547;27;20083;-67
2021/12/31 11:22:43;;;;;;;;;;;11.20;92.70;;;;;;5095975;28;20048;-66
2021/12/31 11:25:18;;;;;;;12.55;3.85;;;11.20;92.70;;;;;;5129395;27;19926;-66
2021/12/31 11:27:48;;;;;;;19.17;4.18;;;11.20;93.10;;;;;;5125592;27;20126;-66
2021/12/31 11:30:28;;;;;;;12.82;4.10;;;11.20;93.10;;;;;;5121580;27;20091;-66
2021/12/31 11:33:08;;;;;;;11.98;3.63;;;11.10;93.50;;;;;;5119315;27;20270;-66
2021/12/31 11:35:37;;;;;;;14.25;4.15;;;11.10;93.80;;;;;;5125436;27;20161;-66
2021/12/31 11:38:05;;;;;;;15.23;3.92;;;11.10;93.70;;;;;;5125109;27;20246;-66
2021/12/31 11:40:36;;;;;;;10.88;3.30;;;11.10;93.70;;;;;;5130718;27;20086;-66
2021/12/31 11:43:19;;;;;;;16.58;4.03;;;11.10;93.70;;;;;;5111899;27;20045;-66
2021/12/31 11:48:48;;;;;;;16.93;4.47;;;11.00;93.90;;;;;;5101769;27;20449;-66
2021/12/31 11:51:36;;;;;;;15.93;3.78;;;11.00;94.00;;;;;;5110703;27;20388;-66
2021/12/31 11:54:04;;;;;;;18.38;3.88;;;11.00;93.90;;;;;;5129272;27;20488;-66
2021/12/31 11:56:47;;;;;;;11.70;3.20;;;11.00;93.90;;;;;;5129413;27;20069;-66
2021/12/31 11:59:16;;;;;;;14.15;3.83;;;11.00;93.90;;;;;;5128328;27;20529;-66
2021/12/31 12:01:48;;;;;;;14.45;3.88;;;11.00;93.80;;;;;;5128309;27;20047;-66
2021/12/31 12:04:37;;;;;;;10.80;3.80;;;11.10;93.80;;;;;;5130457;27;20058;-67
2021/12/31 12:07:31;;;;;;;10.85;3.65;;;11.00;93.80;;;;;;5113344;27;20092;-66
2021/12/31 12:09:57;;;;;;;8.45;3.50;;;11.00;94.00;;;;;;5104293;27;20487;-66
2021/12/31 12:12:28;;;;;;;11.52;3.05;;;11.10;93.80;;;;;;5121605;27;20045;-66
2021/12/31 12:14:58;;;;;;;11.13;3.47;;;11.10;93.80;;;;;;5135711;27;20044;-66
2021/12/31 12:17:29;;;;;;;13.95;3.03;;;11.10;93.80;;;;;;5111067;27;20071;-66
2021/12/31 12:20:01;;;;;;;8.93;3.10;;;11.20;93.60;;;;;;5110457;28;20039;-66
2021/12/31 12:22:34;;;;;;;13.75;3.70;;;11.20;93.80;;;;;;5094960;28;20057;-66
2021/12/31 12:25:04;;;;;;;14.68;3.95;;;11.20;93.40;;;;;;5107973;28;20036;-66
2021/12/31 12:27:30;;;;;;;12.07;3.88;;;11.10;93.50;;;;;;5107714;28;20050;-66
2021/12/31 12:29:57;;;;;;;11.70;3.42;;;11.10;93.70;;;;;;5108160;28;20035;-66
2021/12/31 12:32:36;;;;;;;13.00;3.58;;;11.00;93.70;;;;;;5091095;28;20545;-67
2021/12/31 12:35:24;;;;;;;15.80;3.35;;;11.10;93.80;;;;;;5108223;28;20066;-66
2021/12/31 12:38:01;;;;;;;9.45;3.40;;;11.00;93.80;;;;;;5111950;27;20046;-66
2021/12/31 12:40:42;;;;;;;8.05;2.95;;;11.00;94.00;;;;;;5125132;27;20062;-65
2021/12/31 12:43:23;;;;;;;14.48;3.75;;;11.00;94.00;;;;;;5108950;28;20052;-66
2021/12/31 12:45:54;;;;;;;13.43;4.22;;;11.00;93.90;;;;;;5090583;28;20043;-66
2021/12/31 12:48:37;;;;;;;14.10;3.85;;;11.00;94.00;;;;;;5099686;27;20491;-65
2021/12/31 12:51:07;;;;;;;13.15;3.35;;;11.00;94.20;;;;;;5123005;27;20043;-66